Time;durP1;ratioP1;P1;durP2;ratioP2;P2;SDS_P1;SDS_P2;PMS_P1;PMS_P2;Temp;Humidity;BMP_temperature;BMP_pressure;BME280_temperature;BME280_humidity;BME280_pressure;Samples;Min_cycle;Max_cycle;Signal;HPM_P1;HPM_P2
2021/04/07 00:01:51;;;;;;;13.25;7.90;;;5.20;91.60;;;;;;5052869;28;20056;-82
2021/04/07 00:04:18;;;;;;;14.88;8.43;;;5.20;91.40;;;;;;5052968;28;20052;-82
2021/04/07 00:06:44;;;;;;;13.60;8.02;;;5.20;91.20;;;;;;5053866;28;20013;-82
2021/04/07 00:09:10;;;;;;;15.32;8.27;;;5.20;91.40;;;;;;5054356;28;20074;-82
2021/04/07 00:11:36;;;;;;;20.40;8.02;;;5.20;91.30;;;;;;5052810;28;20475;-82
2021/04/07 00:14:06;;;;;;;14.88;8.77;;;5.20;91.50;;;;;;5052868;28;20025;-82
2021/04/07 00:16:32;;;;;;;14.13;8.10;;;5.20;91.70;;;;;;5052614;28;20079;-82
2021/04/07 00:18:57;;;;;;;14.43;8.48;;;5.20;91.50;;;;;;5053704;28;20032;-82
2021/04/07 00:21:23;;;;;;;13.50;8.38;;;5.20;92.20;;;;;;5052746;28;20021;-82
2021/04/07 00:23:49;;;;;;;18.52;9.20;;;5.10;91.80;;;;;;5052814;28;20021;-82
2021/04/07 00:26:15;;;;;;;14.65;8.57;;;5.10;92.10;;;;;;5052830;28;20021;-83
2021/04/07 00:28:40;;;;;;;13.27;8.82;;;5.10;92.20;;;;;;5053083;28;20386;-83
2021/04/07 00:31:06;;;;;;;15.45;9.07;;;5.20;92.20;;;;;;5052913;28;20386;-82
2021/04/07 00:33:32;;;;;;;14.45;8.88;;;5.10;92.20;;;;;;5054287;28;20031;-82
2021/04/07 00:35:58;;;;;;;12.63;7.88;;;5.20;92.10;;;;;;5052708;28;20457;-82
2021/04/07 00:38:23;;;;;;;12.95;9.07;;;5.20;92.10;;;;;;5053818;28;20048;-83
2021/04/07 00:40:49;;;;;;;13.85;8.70;;;5.20;92.20;;;;;;5052925;28;20383;-82
2021/04/07 00:43:15;;;;;;;13.82;8.38;;;5.20;92.20;;;;;;5053912;28;20467;-83
2021/04/07 00:45:41;;;;;;;13.80;8.18;;;5.20;92.10;;;;;;5053808;28;20078;-83
2021/04/07 00:48:07;;;;;;;12.77;8.65;;;5.20;92.10;;;;;;5052542;28;20099;-82
2021/04/07 00:50:33;;;;;;;13.48;8.98;;;5.20;92.30;;;;;;5052742;28;20036;-82
2021/04/07 00:52:59;;;;;;;12.93;7.97;;;5.30;92.10;;;;;;5052783;28;20029;-82
2021/04/07 00:55:32;;;;;;;13.88;9.15;;;5.30;92.00;;;;;;5052429;28;20025;-82
2021/04/07 00:58:01;;;;;;;20.05;9.50;;;5.30;92.20;;;;;;5052041;28;20048;-83
2021/04/07 01:00:27;;;;;;;16.75;9.20;;;5.20;92.10;;;;;;5053661;28;20032;-83
2021/04/07 01:02:56;;;;;;;23.83;12.43;;;5.30;92.20;;;;;;5053695;28;20021;-83
2021/04/07 01:05:22;;;;;;;25.80;12.00;;;5.20;92.50;;;;;;5053486;28;20382;-83
2021/04/07 01:07:48;;;;;;;36.88;14.38;;;5.30;92.40;;;;;;5053577;28;20021;-83
2021/04/07 01:10:15;;;;;;;44.72;19.20;;;5.30;92.50;;;;;;5051911;28;20021;-83
2021/04/07 01:12:43;;;;;;;52.42;19.35;;;5.40;92.60;;;;;;5053881;28;20131;-83
2021/04/07 01:15:10;;;;;;;52.38;20.42;;;5.30;92.70;;;;;;5053617;28;20024;-82
2021/04/07 01:17:36;;;;;;;71.57;26.13;;;5.40;92.50;;;;;;5053623;28;20017;-82
2021/04/07 01:20:14;;;;;;;63.92;22.48;;;5.40;93.50;;;;;;5052281;28;20017;-82
2021/04/07 01:22:41;;;;;;;51.63;20.15;;;5.40;93.80;;;;;;5051969;28;20429;-83
2021/04/07 01:25:10;;;;;;;33.47;17.15;;;5.50;93.70;;;;;;5053018;28;20096;-83
2021/04/07 01:27:39;;;;;;;37.13;16.85;;;5.50;93.40;;;;;;5052170;28;20021;-82
2021/04/07 01:30:11;;;;;;;28.20;14.57;;;5.60;93.60;;;;;;5051691;28;20032;-83
2021/04/07 01:32:37;;;;;;;28.50;15.10;;;5.60;93.30;;;;;;5052990;28;20029;-83
2021/04/07 01:35:05;;;;;;;21.17;12.48;;;5.70;93.60;;;;;;5052221;28;20079;-83
2021/04/07 01:37:34;;;;;;;20.33;12.63;;;5.70;93.10;;;;;;5051822;28;20021;-83
2021/04/07 01:40:02;;;;;;;21.52;12.32;;;5.80;93.30;;;;;;5052894;28;20053;-83
2021/04/07 01:42:29;;;;;;;24.85;14.52;;;5.80;93.30;;;;;;5052089;28;20032;-82
2021/04/07 01:44:56;;;;;;;24.38;15.40;;;5.80;93.70;;;;;;5051667;28;20021;-82
2021/04/07 01:47:21;;;;;;;46.53;31.85;;;5.80;93.40;;;;;;5051769;28;20025;-82
2021/04/07 01:49:50;;;;;;;55.15;35.85;;;5.80;93.50;;;;;;5052466;28;20078;-82
2021/04/07 01:52:16;;;;;;;56.92;35.28;;;5.90;93.20;;;;;;5051327;28;20021;-83
2021/04/07 01:54:41;;;;;;;52.17;34.28;;;5.90;93.20;;;;;;5051538;28;20036;-83
2021/04/07 01:57:08;;;;;;;49.42;32.25;;;5.90;93.30;;;;;;5052555;28;20486;-82
2021/04/07 01:59:34;;;;;;;31.00;19.38;;;5.90;93.20;;;;;;5051485;28;20120;-83
2021/04/07 02:02:00;;;;;;;27.02;17.50;;;5.90;93.10;;;;;;5051554;28;20037;-82
2021/04/07 02:04:27;;;;;;;32.38;18.42;;;5.90;93.10;;;;;;5051665;28;20162;-82
2021/04/07 02:06:53;;;;;;;26.98;16.30;;;5.80;93.40;;;;;;5051265;28;20111;-82
2021/04/07 02:09:20;;;;;;;25.63;15.13;;;5.80;93.40;;;;;;5052644;28;20776;-82
2021/04/07 02:11:48;;;;;;;27.35;16.52;;;5.90;93.30;;;;;;5052680;28;20033;-82
2021/04/07 02:14:19;;;;;;;23.60;13.98;;;5.80;93.80;;;;;;5052796;28;20024;-82
2021/04/07 02:16:54;;;;;;;30.92;16.17;;;5.80;93.70;;;;;;5052730;28;20040;-82
2021/04/07 02:19:24;;;;;;;25.73;17.75;;;5.80;94.20;;;;;;5051112;28;20505;-82
2021/04/07 02:22:02;;;;;;;30.98;20.67;;;5.80;93.70;;;;;;5051832;28;20493;-82
2021/04/07 02:24:29;;;;;;;47.88;24.02;;;5.80;93.80;;;;;;5055265;28;20120;-83
2021/04/07 02:26:55;;;;;;;39.13;22.92;;;5.80;93.80;;;;;;5055197;28;20032;-82
2021/04/07 02:29:20;;;;;;;47.70;23.90;;;5.80;93.70;;;;;;5055405;28;20021;-83
2021/04/07 02:31:46;;;;;;;51.90;22.85;;;5.80;93.70;;;;;;5054895;28;20029;-82
2021/04/07 02:34:12;;;;;;;52.42;22.98;;;5.80;93.70;;;;;;5054921;28;20112;-82
2021/04/07 02:36:38;;;;;;;51.10;23.27;;;5.80;93.90;;;;;;5054999;28;20057;-82
2021/04/07 02:39:05;;;;;;;72.60;24.67;;;5.90;93.60;;;;;;5054850;28;20033;-83
2021/04/07 02:41:31;;;;;;;60.65;25.63;;;5.90;93.80;;;;;;5056399;28;20101;-82
2021/04/07 02:43:57;;;;;;;70.32;26.08;;;5.90;94.00;;;;;;5054701;28;20021;-82
2021/04/07 02:46:23;;;;;;;56.53;22.70;;;5.90;94.10;;;;;;5054772;28;20027;-82
2021/04/07 02:48:49;;;;;;;46.67;20.48;;;5.90;93.70;;;;;;5055011;28;20067;-82
2021/04/07 02:51:14;;;;;;;66.93;26.42;;;5.90;93.50;;;;;;5056069;28;20100;-83
2021/04/07 02:53:41;;;;;;;79.35;31.45;;;5.90;93.40;;;;;;5053433;28;20048;-82
2021/04/07 02:56:06;;;;;;;92.32;33.65;;;6.00;93.60;;;;;;5054226;28;20466;-82
2021/04/07 02:58:32;;;;;;;96.32;32.65;;;5.90;93.50;;;;;;5054493;28;20045;-81
2021/04/07 03:00:58;;;;;;;80.90;31.02;;;6.00;93.60;;;;;;5055317;28;20063;-83
2021/04/07 03:03:24;;;;;;;86.30;32.47;;;6.00;93.50;;;;;;5054735;28;20519;-82
2021/04/07 03:05:49;;;;;;;92.68;34.05;;;6.00;93.50;;;;;;5053954;28;20033;-83
2021/04/07 03:08:15;;;;;;;102.00;37.67;;;6.00;93.60;;;;;;5054413;28;20056;-82
2021/04/07 03:10:41;;;;;;;95.03;37.30;;;6.00;93.50;;;;;;5055372;28;20433;-83
2021/04/07 03:13:06;;;;;;;102.97;35.55;;;6.00;93.40;;;;;;5055546;28;20032;-83
2021/04/07 03:15:32;;;;;;;113.65;42.80;;;6.00;93.40;;;;;;5053106;28;20025;-82
2021/04/07 03:17:58;;;;;;;97.07;38.78;;;6.00;93.30;;;;;;5055024;28;20036;-82
2021/04/07 03:20:24;;;;;;;86.38;35.00;;;6.00;93.20;;;;;;5053787;28;20017;-83
2021/04/07 03:22:50;;;;;;;76.97;31.02;;;6.00;93.20;;;;;;5053453;28;20032;-83
2021/04/07 03:25:15;;;;;;;51.95;26.08;;;6.00;93.10;;;;;;5054709;28;20422;-83
2021/04/07 03:27:41;;;;;;;45.22;24.05;;;6.00;93.00;;;;;;5053221;28;20044;-83
2021/04/07 03:30:08;;;;;;;52.28;27.13;;;6.00;93.00;;;;;;5053144;28;20108;-83
2021/04/07 03:32:33;;;;;;;43.85;22.17;;;5.90;93.60;;;;;;5047353;28;20021;-84
2021/04/07 03:34:59;;;;;;;32.22;17.00;;;5.80;93.40;;;;;;5054585;28;20032;-84
2021/04/07 03:37:25;;;;;;;30.08;16.52;;;5.90;93.40;;;;;;5053199;28;20091;-83
2021/04/07 03:39:51;;;;;;;26.25;15.00;;;5.90;93.70;;;;;;5052542;28;20029;-83
2021/04/07 03:42:17;;;;;;;24.25;13.23;;;5.90;93.60;;;;;;5053194;28;20021;-84
2021/04/07 03:44:43;;;;;;;28.13;15.75;;;5.80;93.80;;;;;;5053096;28;20118;-83
2021/04/07 03:47:09;;;;;;;23.77;14.82;;;5.80;94.10;;;;;;5052500;28;20033;-83
2021/04/07 03:49:35;;;;;;;20.95;13.02;;;5.80;94.30;;;;;;5053919;28;20082;-84
2021/04/07 03:52:01;;;;;;;25.25;13.80;;;5.80;94.00;;;;;;5053457;28;20029;-83
2021/04/07 03:54:27;;;;;;;23.77;12.75;;;5.90;93.90;;;;;;5053289;28;20760;-85
2021/04/07 03:56:55;;;;;;;31.75;15.57;;;5.90;93.70;;;;;;5052855;28;20056;-84
2021/04/07 03:59:21;;;;;;;26.30;13.45;;;5.90;93.60;;;;;;5052855;28;20064;-84
2021/04/07 04:01:47;;;;;;;27.58;15.00;;;6.00;93.60;;;;;;5052804;28;20094;-85
2021/04/07 04:04:13;;;;;;;22.25;13.20;;;6.00;93.50;;;;;;5052780;28;20411;-85
2021/04/07 04:06:43;;;;;;;21.10;13.13;;;6.00;93.80;;;;;;5052720;28;20024;-85
2021/04/07 04:09:09;;;;;;;22.63;13.60;;;6.10;93.70;;;;;;5053016;28;20017;-85
2021/04/07 04:11:35;;;;;;;26.35;14.55;;;6.10;94.00;;;;;;5053015;28;20366;-85
2021/04/07 04:14:00;;;;;;;19.85;12.88;;;6.20;93.70;;;;;;5054012;28;20021;-85
2021/04/07 04:16:27;;;;;;;23.20;13.70;;;6.20;93.60;;;;;;5053955;28;20031;-86
2021/04/07 04:18:54;;;;;;;27.27;15.10;;;6.20;93.50;;;;;;5052466;28;20032;-86
2021/04/07 04:21:20;;;;;;;25.02;15.13;;;6.20;93.90;;;;;;5052435;28;20017;-84
2021/04/07 04:23:45;;;;;;;26.67;15.45;;;6.10;94.00;;;;;;5052743;28;20033;-85
2021/04/07 04:26:11;;;;;;;25.80;13.38;;;6.10;94.20;;;;;;5052743;28;20490;-84
2021/04/07 04:28:37;;;;;;;25.45;13.45;;;6.10;94.00;;;;;;5053629;28;20104;-83
2021/04/07 04:31:03;;;;;;;28.10;14.25;;;6.10;94.00;;;;;;5052234;28;20040;-82
2021/04/07 04:33:29;;;;;;;26.27;14.77;;;6.20;93.80;;;;;;5052502;28;20518;-81
2021/04/07 04:35:57;;;;;;;23.95;14.40;;;6.10;94.10;;;;;;5052766;28;20119;-82
2021/04/07 04:38:27;;;;;;;38.42;18.45;;;6.20;94.10;;;;;;5052232;28;20052;-82
2021/04/07 04:40:54;;;;;;;32.33;17.17;;;6.20;94.40;;;;;;5053421;28;20033;-81
2021/04/07 04:43:20;;;;;;;27.40;14.73;;;6.20;94.50;;;;;;5052171;28;20360;-83
2021/04/07 04:45:46;;;;;;;31.10;16.02;;;6.30;94.30;;;;;;5052364;28;20106;-81
2021/04/07 04:48:12;;;;;;;29.77;15.20;;;6.30;94.30;;;;;;5052443;28;20078;-81
2021/04/07 04:50:37;;;;;;;33.70;16.17;;;6.40;94.30;;;;;;5052277;28;20021;-82
2021/04/07 04:53:03;;;;;;;28.52;15.65;;;6.50;94.10;;;;;;5052253;28;20033;-82
2021/04/07 04:55:29;;;;;;;30.17;15.50;;;6.60;93.80;;;;;;5052212;28;20124;-83
2021/04/07 04:57:56;;;;;;;31.30;16.83;;;6.70;93.60;;;;;;5051598;28;20410;-81
2021/04/07 05:00:22;;;;;;;30.95;15.75;;;6.70;93.60;;;;;;5053709;28;20028;-83
2021/04/07 05:02:48;;;;;;;40.90;19.45;;;6.70;93.60;;;;;;5052105;28;20550;-82
2021/04/07 05:05:14;;;;;;;29.75;17.83;;;6.60;93.90;;;;;;5052011;28;20036;-85
2021/04/07 05:07:40;;;;;;;30.30;15.82;;;6.60;93.90;;;;;;5060489;28;20021;-84
2021/04/07 05:10:06;;;;;;;35.75;17.85;;;6.70;93.70;;;;;;5055437;28;20459;-75
2021/04/07 05:12:32;;;;;;;25.23;13.88;;;6.60;93.70;;;;;;5053739;28;20017;-84
2021/04/07 05:14:58;;;;;;;24.90;14.65;;;6.60;93.70;;;;;;5052582;28;20086;-83
2021/04/07 05:17:24;;;;;;;26.35;14.80;;;6.70;93.70;;;;;;5052626;28;20033;-83
2021/04/07 05:19:50;;;;;;;25.02;15.15;;;6.60;93.70;;;;;;5052194;28;20029;-83
2021/04/07 05:22:17;;;;;;;23.30;13.55;;;6.60;93.80;;;;;;5052066;28;20067;-81
2021/04/07 05:24:43;;;;;;;27.20;15.15;;;6.60;93.80;;;;;;5051832;28;20059;-81
2021/04/07 05:27:08;;;;;;;21.80;12.52;;;6.70;93.50;;;;;;5051853;28;20457;-82
2021/04/07 05:29:34;;;;;;;27.60;16.02;;;6.70;93.50;;;;;;5052961;28;20025;-82
2021/04/07 05:32:00;;;;;;;28.70;16.15;;;6.80;93.50;;;;;;5051396;28;20035;-82
2021/04/07 05:34:26;;;;;;;25.88;16.42;;;6.80;93.80;;;;;;5051590;28;20115;-82
2021/04/07 05:36:52;;;;;;;32.83;16.25;;;6.80;93.40;;;;;;5052744;28;20036;-84
2021/04/07 05:39:18;;;;;;;30.48;15.32;;;6.90;93.50;;;;;;5052736;28;20029;-82
2021/04/07 05:41:43;;;;;;;25.55;15.63;;;6.90;93.20;;;;;;5051426;28;20025;-83
2021/04/07 05:44:09;;;;;;;23.13;13.63;;;6.90;93.20;;;;;;5051488;28;20048;-83
2021/04/07 05:46:35;;;;;;;23.08;15.05;;;6.90;93.30;;;;;;5052557;28;20029;-82
2021/04/07 05:49:01;;;;;;;23.58;14.45;;;6.90;93.10;;;;;;5051197;28;20024;-83
2021/04/07 05:51:26;;;;;;;21.80;14.13;;;7.00;93.20;;;;;;5051317;28;20025;-82
2021/04/07 05:53:52;;;;;;;23.30;13.93;;;7.00;93.20;;;;;;5051097;28;20112;-82
2021/04/07 05:56:18;;;;;;;19.30;13.35;;;7.10;93.20;;;;;;5051089;28;20029;-82
2021/04/07 05:58:44;;;;;;;29.55;18.65;;;7.20;93.10;;;;;;5054938;28;20049;-82
2021/04/07 06:01:11;;;;;;;40.60;26.55;;;7.20;92.80;;;;;;5055148;28;20119;-89
2021/04/07 06:03:37;;;;;;;38.22;25.85;;;7.30;92.80;;;;;;5054939;28;20238;-83
2021/04/07 06:06:05;;;;;;;27.75;15.88;;;7.30;92.70;;;;;;5054902;28;20120;-83
2021/04/07 06:08:30;;;;;;;30.88;15.15;;;7.30;92.50;;;;;;5056071;28;20036;-83
2021/04/07 06:10:56;;;;;;;25.85;12.27;;;7.30;92.50;;;;;;5054914;28;20025;-83
2021/04/07 06:13:22;;;;;;;19.10;11.05;;;7.40;92.40;;;;;;5054980;28;20052;-82
2021/04/07 06:15:48;;;;;;;14.98;10.73;;;7.40;92.20;;;;;;5054731;28;20021;-83
2021/04/07 06:18:16;;;;;;;16.02;11.32;;;7.40;92.40;;;;;;5054886;28;20047;-84
2021/04/07 06:20:47;;;;;;;18.88;11.40;;;7.40;92.30;;;;;;5054820;28;20127;-83
2021/04/07 06:23:14;;;;;;;18.67;11.73;;;7.50;92.20;;;;;;5054924;28;20021;-82
2021/04/07 06:25:40;;;;;;;15.32;10.23;;;7.40;92.30;;;;;;5055257;28;20060;-83
2021/04/07 06:28:08;;;;;;;17.25;11.60;;;7.40;92.30;;;;;;5056577;28;20032;-84
2021/04/07 06:33:12;;;;;;;20.30;13.32;;;7.40;92.20;;;;;;5056800;28;20108;-83
2021/04/07 06:35:39;;;;;;;21.88;13.20;;;7.40;92.10;;;;;;5055362;28;20031;-83
2021/04/07 06:38:05;;;;;;;22.83;14.38;;;7.40;92.20;;;;;;5054910;28;20021;-83
2021/04/07 06:40:31;;;;;;;19.83;13.45;;;7.40;92.30;;;;;;5055179;28;20029;-83
2021/04/07 06:42:59;;;;;;;26.00;14.20;;;7.40;92.30;;;;;;5054933;28;20021;-83
2021/04/07 06:45:29;;;;;;;23.27;14.40;;;7.40;92.30;;;;;;5054809;28;20029;-82
2021/04/07 06:47:55;;;;;;;21.98;12.55;;;7.50;92.50;;;;;;5054904;28;20021;-82
2021/04/07 06:50:22;;;;;;;17.50;11.27;;;7.60;92.50;;;;;;5038325;28;20025;-83
2021/04/07 06:52:49;;;;;;;22.63;13.20;;;7.80;92.50;;;;;;5054704;28;20021;-82
2021/04/07 06:55:17;;;;;;;21.60;13.70;;;8.10;92.30;;;;;;5054743;28;20027;-84
2021/04/07 06:57:46;;;;;;;22.65;13.20;;;8.30;92.00;;;;;;5054348;28;20425;-83
2021/04/07 07:00:14;;;;;;;25.65;15.13;;;8.40;91.70;;;;;;5054495;28;20035;-82
2021/04/07 07:02:41;;;;;;;28.25;15.70;;;8.60;91.50;;;;;;5054799;28;20025;-82
2021/04/07 07:05:08;;;;;;;22.90;15.13;;;8.70;91.00;;;;;;5054645;28;20203;-83
2021/04/07 07:07:33;;;;;;;28.33;15.60;;;8.70;91.00;;;;;;5053964;28;20021;-83
2021/04/07 07:10:00;;;;;;;30.90;16.40;;;8.70;90.90;;;;;;5054277;28;20036;-82
2021/04/07 07:12:30;;;;;;;23.23;15.13;;;8.70;90.90;;;;;;5054299;28;20024;-82
2021/04/07 07:15:02;;;;;;;23.83;16.42;;;8.70;90.70;;;;;;5054252;28;20050;-82
2021/04/07 07:17:33;;;;;;;26.08;14.77;;;8.50;90.50;;;;;;5054194;28;20430;-83
2021/04/07 07:19:59;;;;;;;28.27;17.52;;;8.50;90.70;;;;;;5054027;28;20053;-83
2021/04/07 07:22:27;;;;;;;27.48;16.10;;;8.40;90.70;;;;;;5054672;28;20025;-82
2021/04/07 07:24:58;;;;;;;22.75;13.60;;;8.40;90.90;;;;;;5053461;28;20071;-82
2021/04/07 07:27:37;;;;;;;21.38;14.93;;;8.40;91.10;;;;;;5054512;28;20103;-83
2021/04/07 07:30:05;;;;;;;23.05;14.73;;;8.50;90.80;;;;;;5054547;28;20025;-82
2021/04/07 07:32:39;;;;;;;27.98;17.00;;;8.50;90.90;;;;;;5053099;28;20112;-82
2021/04/07 07:35:17;;;;;;;27.10;15.23;;;8.60;90.70;;;;;;5053215;28;20025;-83
2021/04/07 07:37:44;;;;;;;22.17;13.90;;;8.60;90.80;;;;;;5053464;28;20463;-83
2021/04/07 07:40:16;;;;;;;22.30;15.52;;;8.80;91.10;;;;;;5052996;28;20036;-83
2021/04/07 07:42:44;;;;;;;25.73;15.82;;;9.00;90.80;;;;;;5053086;28;20021;-83
2021/04/07 07:45:10;;;;;;;24.42;14.60;;;9.20;90.80;;;;;;5052964;28;20021;-83
2021/04/07 07:47:45;;;;;;;19.30;13.50;;;9.40;90.50;;;;;;5052888;28;20021;-83
2021/04/07 07:50:12;;;;;;;20.55;12.40;;;9.60;90.00;;;;;;5052693;28;20037;-82
2021/04/07 07:52:41;;;;;;;25.52;14.10;;;9.70;89.90;;;;;;5053031;28;20477;-82
2021/04/07 07:55:18;;;;;;;21.60;14.70;;;9.80;89.50;;;;;;5052893;28;20368;-83
2021/04/07 07:57:54;;;;;;;21.92;14.65;;;10.00;89.40;;;;;;5052489;28;20098;-82
2021/04/07 08:00:22;;;;;;;22.95;14.95;;;10.00;88.60;;;;;;5052774;28;20548;-82
2021/04/07 08:02:47;;;;;;;24.98;14.45;;;9.80;87.90;;;;;;5053871;28;20033;-82
2021/04/07 08:05:21;;;;;;;20.45;13.32;;;9.60;88.70;;;;;;5052711;28;20017;-82
2021/04/07 08:07:47;;;;;;;22.65;13.82;;;9.60;88.80;;;;;;5052677;28;20581;-83
2021/04/07 08:10:14;;;;;;;21.90;14.90;;;9.50;89.20;;;;;;5052653;28;20041;-83
2021/04/07 08:12:41;;;;;;;21.50;14.50;;;9.30;89.50;;;;;;5053790;28;20131;-83
2021/04/07 08:15:09;;;;;;;22.80;14.95;;;9.30;89.60;;;;;;5053101;28;20033;-83
2021/04/07 08:17:35;;;;;;;20.60;13.90;;;9.20;89.90;;;;;;5051170;28;20036;-82
2021/04/07 08:20:03;;;;;;;21.45;14.77;;;9.30;90.00;;;;;;5050453;28;20025;-83
2021/04/07 08:22:30;;;;;;;20.95;14.10;;;9.40;89.80;;;;;;5051859;28;20025;-83
2021/04/07 08:24:57;;;;;;;21.95;14.23;;;9.40;90.00;;;;;;5052924;28;20119;-83
2021/04/07 08:27:25;;;;;;;22.13;14.70;;;9.40;89.40;;;;;;5053234;28;20032;-83
2021/04/07 08:29:51;;;;;;;21.02;13.52;;;9.30;89.60;;;;;;5053002;28;20386;-83
2021/04/07 08:32:24;;;;;;;22.58;14.38;;;9.40;89.60;;;;;;5053005;28;20025;-83
2021/04/07 08:34:51;;;;;;;26.15;13.75;;;9.40;89.60;;;;;;5053968;28;20367;-83
2021/04/07 08:37:33;;;;;;;22.20;14.85;;;9.50;90.00;;;;;;5052667;28;20021;-83
2021/04/07 08:40:10;;;;;;;22.70;14.05;;;9.50;89.20;;;;;;5053949;28;20029;-83
2021/04/07 08:42:37;;;;;;;21.33;13.90;;;9.50;89.40;;;;;;5052783;28;20408;-83
2021/04/07 08:45:11;;;;;;;23.67;14.85;;;9.50;89.20;;;;;;5052773;28;20031;-83
2021/04/07 08:47:45;;;;;;;22.45;14.80;;;9.40;89.10;;;;;;5053063;28;20475;-83
2021/04/07 08:50:13;;;;;;;22.40;13.35;;;9.20;89.20;;;;;;5052425;28;20481;-83
2021/04/07 08:52:49;;;;;;;29.42;17.65;;;9.30;89.40;;;;;;5052691;28;20035;-83
2021/04/07 08:55:27;;;;;;;34.88;18.88;;;9.20;89.70;;;;;;5052749;28;20028;-83
2021/04/07 08:58:01;;;;;;;40.83;21.30;;;9.30;89.80;;;;;;5052182;28;20053;-84
2021/04/07 09:00:32;;;;;;;33.83;17.60;;;9.40;89.70;;;;;;5052793;28;20035;-82
2021/04/07 09:03:15;;;;;;;22.30;14.00;;;9.50;89.50;;;;;;5052519;28;20048;-83
2021/04/07 09:05:45;;;;;;;21.33;12.40;;;9.40;89.30;;;;;;5052508;28;20025;-83
2021/04/07 09:08:25;;;;;;;19.15;12.13;;;9.30;89.60;;;;;;5052568;28;20025;-83
2021/04/07 09:10:57;;;;;;;18.33;11.25;;;9.30;89.50;;;;;;5052638;28;20041;-83
2021/04/07 09:13:32;;;;;;;14.82;9.95;;;9.20;89.90;;;;;;5052351;28;20029;-83
2021/04/07 09:16:06;;;;;;;16.85;10.75;;;9.20;89.80;;;;;;5052439;28;20025;-83
2021/04/07 09:18:34;;;;;;;18.98;11.40;;;9.10;90.10;;;;;;5052096;28;20075;-82
2021/04/07 09:21:01;;;;;;;15.93;10.30;;;9.10;90.30;;;;;;5053101;28;20401;-83
2021/04/07 09:23:31;;;;;;;17.35;10.27;;;9.10;90.30;;;;;;5050565;28;20024;-83
2021/04/07 09:26:08;;;;;;;16.30;10.80;;;9.20;90.30;;;;;;5050455;28;20056;-82
2021/04/07 09:28:59;;;;;;;16.17;10.80;;;9.10;90.30;;;;;;5050506;28;20487;-83
2021/04/07 09:31:33;;;;;;;16.40;10.52;;;9.00;90.60;;;;;;5052343;28;20364;-84
2021/04/07 09:33:59;;;;;;;15.82;10.48;;;9.00;90.60;;;;;;5054303;28;20029;-85
2021/04/07 09:36:33;;;;;;;17.58;10.65;;;8.90;90.70;;;;;;5054551;28;20031;-84
2021/04/07 09:39:07;;;;;;;19.75;11.45;;;8.90;90.70;;;;;;5054330;28;20033;-84
2021/04/07 09:41:35;;;;;;;19.05;11.48;;;8.80;90.90;;;;;;5055489;28;20021;-83
2021/04/07 09:44:05;;;;;;;19.38;12.20;;;8.70;91.20;;;;;;5054583;28;20067;-82
2021/04/07 09:46:31;;;;;;;17.27;11.52;;;8.70;91.60;;;;;;5038069;28;20052;-82
2021/04/07 09:49:18;;;;;;;19.48;11.68;;;8.70;91.40;;;;;;5054071;28;20479;-83
2021/04/07 09:51:48;;;;;;;17.30;10.85;;;8.70;91.20;;;;;;5053432;28;20391;-86
2021/04/07 09:54:17;;;;;;;15.75;10.77;;;8.80;91.10;;;;;;5054301;28;20517;-76
2021/04/07 09:56:53;;;;;;;17.52;11.77;;;8.80;91.10;;;;;;5053835;28;20036;-83
2021/04/07 09:59:45;;;;;;;20.25;12.05;;;8.80;91.10;;;;;;5053915;28;20029;-84
2021/04/07 10:02:23;;;;;;;19.80;12.93;;;8.80;91.20;;;;;;5054053;28;20356;-84
2021/04/07 10:04:51;;;;;;;19.88;11.73;;;8.60;91.40;;;;;;5053836;28;20117;-84
2021/04/07 10:07:24;;;;;;;21.90;12.80;;;8.60;91.30;;;;;;5054014;28;20111;-85
2021/04/07 10:09:51;;;;;;;22.95;14.75;;;8.60;91.40;;;;;;5053904;28;20037;-84
2021/04/07 10:12:19;;;;;;;19.60;13.27;;;8.60;91.50;;;;;;5054026;28;20075;-83
2021/04/07 10:14:54;;;;;;;19.30;12.75;;;8.70;91.50;;;;;;5053702;28;20032;-83
2021/04/07 10:17:35;;;;;;;120.07;57.20;;;8.60;91.60;;;;;;5053674;28;20029;-82
2021/04/07 10:20:12;;;;;;;332.48;124.10;;;8.70;91.50;;;;;;5053544;28;20479;-84
2021/04/07 10:22:39;;;;;;;134.32;69.47;;;8.80;91.40;;;;;;5054323;28;20091;-83
2021/04/07 10:25:19;;;;;;;29.92;19.27;;;8.80;91.20;;;;;;5056683;28;20028;-84
2021/04/07 10:27:46;;;;;;;21.85;13.90;;;8.90;91.10;;;;;;5055415;28;20025;-84
2021/04/07 10:30:14;;;;;;;25.13;14.10;;;9.00;91.10;;;;;;5055464;28;20033;-85
2021/04/07 10:32:41;;;;;;;29.67;19.67;;;9.00;91.00;;;;;;5055465;28;20120;-84
2021/04/07 10:35:29;;;;;;;31.75;20.30;;;9.00;90.90;;;;;;5056581;28;20017;-84
2021/04/07 10:38:01;;;;;;;23.05;15.95;;;9.10;90.90;;;;;;5055058;28;20025;-85
2021/04/07 10:40:29;;;;;;;45.88;23.75;;;9.30;90.70;;;;;;5055223;28;20531;-84
2021/04/07 10:42:56;;;;;;;35.00;19.48;;;9.40;90.30;;;;;;5054354;28;20025;-83
2021/04/07 10:45:24;;;;;;;30.23;18.50;;;9.40;90.30;;;;;;5055152;28;20021;-84
2021/04/07 10:47:49;;;;;;;31.13;18.40;;;9.50;90.20;;;;;;5054897;28;20029;-83
2021/04/07 10:50:16;;;;;;;43.95;21.45;;;9.50;90.10;;;;;;5054903;28;20112;-84
2021/04/07 10:52:43;;;;;;;35.83;19.80;;;9.50;90.20;;;;;;5055564;28;20060;-87
2021/04/07 10:55:10;;;;;;;25.35;14.10;;;9.40;90.30;;;;;;5054939;28;20025;-84
2021/04/07 10:57:39;;;;;;;34.80;20.58;;;9.40;90.30;;;;;;5054862;28;20071;-83
2021/04/07 11:00:24;;;;;;;32.67;21.95;;;9.10;90.70;;;;;;5056523;28;20036;-84
2021/04/07 11:02:52;;;;;;;43.45;28.17;;;8.80;91.10;;;;;;5055038;28;20053;-85
2021/04/07 11:05:20;;;;;;;41.58;24.35;;;8.50;91.50;;;;;;5054877;28;20028;-84
2021/04/07 11:07:47;;;;;;;53.40;30.90;;;8.30;91.40;;;;;;5054723;28;20051;-82
2021/04/07 11:10:15;;;;;;;41.78;24.15;;;7.80;92.10;;;;;;5055588;28;20035;-85
2021/04/07 11:12:42;;;;;;;32.97;20.42;;;7.70;91.90;;;;;;5054871;28;20029;-83
2021/04/07 11:15:10;;;;;;;35.10;23.55;;;7.50;92.00;;;;;;5054303;28;20037;-83
2021/04/07 11:17:36;;;;;;;29.95;16.90;;;7.30;92.20;;;;;;5054392;28;20025;-86
2021/04/07 11:20:04;;;;;;;24.33;15.00;;;7.30;92.10;;;;;;5054479;28;20032;-84
2021/04/07 11:22:30;;;;;;;23.05;13.82;;;7.20;92.00;;;;;;5054035;28;20025;-83
2021/04/07 11:24:56;;;;;;;28.30;20.08;;;7.20;92.10;;;;;;5053733;28;20021;-84
2021/04/07 11:27:22;;;;;;;28.95;18.95;;;7.10;92.20;;;;;;5055070;28;20029;-85
2021/04/07 11:29:48;;;;;;;27.88;18.02;;;7.00;92.40;;;;;;5053865;28;20056;-86
2021/04/07 11:32:16;;;;;;;22.67;12.90;;;7.00;92.50;;;;;;5053856;28;20025;-86
2021/04/07 11:39:49;;;;;;;17.80;12.65;;;6.80;92.90;;;;;;5053363;28;20025;-83
2021/04/07 11:44:43;;;;;;;14.55;8.82;;;6.70;93.00;;;;;;5053697;28;20021;-86
2021/04/07 11:47:09;;;;;;;14.95;9.43;;;6.60;92.80;;;;;;5052874;28;20363;-86
2021/04/07 11:49:36;;;;;;;44.63;20.25;;;6.60;92.70;;;;;;5052578;28;20475;-83
2021/04/07 11:52:03;;;;;;;27.08;14.00;;;6.60;92.80;;;;;;5052156;28;20063;-84
2021/04/07 11:54:29;;;;;;;23.08;11.18;;;6.50;93.00;;;;;;5051657;28;20029;-83
2021/04/07 11:56:55;;;;;;;35.60;18.58;;;6.50;92.90;;;;;;5051773;28;20039;-84
2021/04/07 11:59:22;;;;;;;13.38;7.20;;;6.60;92.80;;;;;;5052157;28;20033;-85
2021/04/07 12:01:51;;;;;;;18.80;7.47;;;6.60;92.70;;;;;;5052257;28;20068;-84
2021/04/07 12:04:17;;;;;;;57.50;14.95;;;6.60;92.70;;;;;;5051730;28;20107;-81
2021/04/07 12:06:43;;;;;;;20.63;10.20;;;6.50;92.90;;;;;;5052018;28;20029;-81
2021/04/07 12:09:09;;;;;;;19.00;9.15;;;6.60;92.80;;;;;;5052893;28;20033;-82
2021/04/07 12:11:36;;;;;;;20.85;10.70;;;6.70;93.00;;;;;;5051720;28;20421;-83
2021/04/07 12:14:03;;;;;;;22.73;11.13;;;6.50;93.00;;;;;;5051706;28;20025;-82
2021/04/07 12:16:29;;;;;;;18.13;10.00;;;6.40;92.70;;;;;;5054590;28;20040;-82
2021/04/07 12:18:56;;;;;;;15.05;9.07;;;6.30;93.00;;;;;;5051461;28;20033;-83
2021/04/07 12:21:23;;;;;;;16.17;9.38;;;6.30;93.10;;;;;;5052327;28;20078;-82
2021/04/07 12:23:48;;;;;;;20.73;12.65;;;6.10;93.40;;;;;;5051489;28;20025;-83
2021/04/07 12:26:15;;;;;;;14.18;8.27;;;6.10;93.20;;;;;;5052855;28;20013;-82
2021/04/07 12:28:43;;;;;;;14.45;8.50;;;6.10;93.30;;;;;;5051704;28;20549;-83
2021/04/07 12:31:12;;;;;;;17.90;11.00;;;6.20;93.10;;;;;;5051601;28;20364;-83
2021/04/07 12:33:37;;;;;;;16.17;9.00;;;6.10;93.00;;;;;;5051879;28;20044;-84
2021/04/07 12:36:09;;;;;;;13.70;9.70;;;6.00;93.20;;;;;;5053394;28;20024;-84
2021/04/07 12:38:40;;;;;;;16.83;10.35;;;5.90;93.40;;;;;;5051437;28;20025;-83
2021/04/07 12:43:41;;;;;;;22.67;12.95;;;5.70;93.70;;;;;;5050624;28;20020;-85
2021/04/07 12:46:07;;;;;;;26.67;14.98;;;5.60;94.00;;;;;;5051438;28;20023;-84
2021/04/07 12:48:32;;;;;;;17.90;8.63;;;5.40;94.60;;;;;;5051158;28;20021;-82
2021/04/07 12:50:58;;;;;;;17.65;9.73;;;5.20;95.30;;;;;;5051153;28;20086;-80
2021/04/07 12:53:24;;;;;;;13.82;7.70;;;5.10;95.40;;;;;;5051140;28;20051;-81
2021/04/07 12:55:51;;;;;;;23.30;11.98;;;5.10;95.50;;;;;;5052425;28;20031;-82